Terminal Aerodrome Forecast
Issued by NWS

Home | Current Version | Previous Version | Text Only | Print | Product List | Glossary On
Versions: 1 2 3 4 5 6 7 8 9 10 11 12 13 14 15 16 17 18 19 20 21 22 23 24 25 26
000
FTUS42 KCAE 220520
TAFOGB
TAF
KOGB 220520Z 2206/2306 VRB03KT P6SM FEW250
     FM220900 VRB03KT 1 1/2SM BR BKN006
     FM221400 VRB04KT P6SM SCT025
     FM221700 18006KT P6SM VCTS BKN030CB
     FM230000 16004KT P6SM SCT030=

USA.gov is the U.S. government's official web portal to all federal, state and local government web resources and services.